createdAt,value
2023-02-11T00:00:41.091Z,101215.35
2023-02-11T00:02:48.029Z,101218.21
2023-02-11T00:04:50.953Z,101215.39
2023-02-11T00:06:57.688Z,101213.29
2023-02-11T00:09:01.334Z,101213.70
2023-02-11T00:11:07.062Z,101210.80
2023-02-11T00:13:09.696Z,101211.55
2023-02-11T00:15:12.398Z,101211.02
2023-02-11T00:17:15.588Z,101208.73
2023-02-11T00:19:18.321Z,101210.27
2023-02-11T00:21:25.880Z,101214.73
2023-02-11T00:23:28.587Z,101212.91
2023-02-11T00:25:34.195Z,101216.44
2023-02-11T00:27:37.751Z,101219.26
2023-02-11T00:29:40.898Z,101217.23
2023-02-11T00:31:47.917Z,101217.05
2023-02-11T00:33:50.766Z,101217.90
2023-02-11T00:35:54.948Z,101211.77
2023-02-11T00:37:58.998Z,101211.83
2023-02-11T00:40:03.831Z,101214.13
2023-02-11T00:42:10.967Z,101215.77
2023-02-11T00:44:13.763Z,101213.81
2023-02-11T00:46:19.818Z,101218.02
2023-02-11T00:48:22.640Z,101220.67
2023-02-11T00:50:28.124Z,101218.56
2023-02-11T00:52:32.437Z,101220.86
2023-02-11T00:54:35.208Z,101218.30
2023-02-11T00:56:44.073Z,101214.80
2023-02-11T00:58:50.142Z,101209.54
2023-02-11T01:00:53.692Z,101211.92
2023-02-11T01:02:56.573Z,101208.73
2023-02-11T01:05:00.135Z,101205.55
2023-02-11T01:07:03.034Z,101206.27
2023-02-11T01:09:06.262Z,101201.23
2023-02-11T01:11:15.722Z,101204.08
2023-02-11T01:13:20.838Z,101198.70
2023-02-11T01:15:23.776Z,101200.19
2023-02-11T01:17:29.205Z,101196.88
2023-02-11T01:19:31.938Z,101196.33
2023-02-11T01:21:34.888Z,101193.46
2023-02-11T01:23:37.804Z,101188.98
2023-02-11T01:25:46.780Z,101186.77
2023-02-11T01:27:49.496Z,101183.36
2023-02-11T01:29:55.804Z,101180.59
2023-02-11T01:32:00.111Z,101179.50
2023-02-11T01:34:06.044Z,101178.88
2023-02-11T01:36:10.645Z,101181.65
2023-02-11T01:38:21.550Z,101178.42
2023-02-11T01:40:24.844Z,101178.52
2023-02-11T01:42:27.599Z,101179.52
2023-02-11T01:44:32.347Z,101173.51
2023-02-11T01:46:37.529Z,101173.92
2023-02-11T01:48:43.669Z,101175.52
2023-02-11T01:50:50.346Z,101170.42
2023-02-11T01:52:53.685Z,101170.92
2023-02-11T01:55:00.032Z,101166.25
2023-02-11T01:57:05.962Z,101165.98
2023-02-11T01:59:23.537Z,101161.67
2023-02-11T02:01:28.528Z,101164.74
2023-02-11T02:03:40.082Z,101163.39
2023-02-11T02:05:52.645Z,101165.24
2023-02-11T02:08:10.981Z,101163.63
2023-02-11T02:10:22.186Z,101162.39
2023-02-11T02:12:25.031Z,101161.25
2023-02-11T02:14:28.554Z,101156.59
2023-02-11T02:16:35.748Z,101156.67
2023-02-11T02:18:50.323Z,101158.48
2023-02-11T02:21:35.142Z,101154.64
2023-02-11T02:24:13.869Z,101146.14
2023-02-11T02:26:53.771Z,101141.44
2023-02-11T02:29:42.334Z,101135.34
2023-02-11T02:32:01.584Z,101133.55
2023-02-11T02:34:09.078Z,101130.27
2023-02-11T02:36:18.927Z,101124.79
2023-02-11T02:38:27.964Z,101121.30
2023-02-11T02:40:34.556Z,101113.94
2023-02-11T02:42:39.536Z,101114.88
2023-02-11T02:44:48.653Z,101103.11
2023-02-11T02:46:53.048Z,101096.54
2023-02-11T02:48:59.709Z,101098.73
2023-02-11T02:51:10.745Z,101097.34
2023-02-11T02:53:26.569Z,101095.76
2023-02-11T02:55:46.281Z,101095.44
2023-02-11T02:58:26.435Z,101094.66
2023-02-11T03:00:37.665Z,101095.96
2023-02-11T03:02:48.693Z,101097.34
2023-02-11T03:05:01.849Z,101094.47
2023-02-11T03:07:16.004Z,101093.64
2023-02-11T03:09:24.814Z,101094.48
2023-02-11T03:11:40.563Z,101092.14
2023-02-11T03:13:48.359Z,101095.68
2023-02-11T03:15:55.056Z,101090.67
2023-02-11T03:18:01.300Z,101084.48
2023-02-11T03:20:06.260Z,101084.39
2023-02-11T03:22:19.522Z,101080.91
2023-02-11T03:24:30.274Z,101076.91
2023-02-11T03:26:39.856Z,101077.36
2023-02-11T03:28:48.890Z,101077.27
2023-02-11T03:30:59.066Z,101074.29
2023-02-11T03:33:11.796Z,101073.41
2023-02-11T03:35:20.320Z,101070.98
2023-02-11T03:37:28.198Z,101064.70
2023-02-11T03:39:39.394Z,101066.94
2023-02-11T03:41:48.444Z,101062.83
2023-02-11T03:43:57.686Z,101060.59
2023-02-11T03:46:01.777Z,101059.43
2023-02-11T03:48:08.238Z,101047.55
2023-02-11T03:50:12.439Z,101045.76
2023-02-11T03:52:17.539Z,101041.11
2023-02-11T03:54:26.811Z,101035.34
2023-02-11T03:56:35.939Z,101034.37
2023-02-11T03:58:38.789Z,101030.30
2023-02-11T04:00:43.544Z,101025.73
2023-02-11T04:02:49.338Z,101020.27
2023-02-11T04:04:55.222Z,101021.80
2023-02-11T04:06:57.871Z,101019.51
2023-02-11T04:09:00.918Z,101017.17
2023-02-11T04:11:03.571Z,101009.95
2023-02-11T04:13:06.384Z,101015.27
2023-02-11T04:15:09.810Z,101016.52
2023-02-11T04:17:13.803Z,101022.85
2023-02-11T04:19:16.444Z,101021.42
2023-02-11T04:21:19.342Z,101026.52
2023-02-11T04:23:22.030Z,101029.32
2023-02-11T04:25:24.753Z,101026.44
2023-02-11T04:27:27.511Z,101026.42
2023-02-11T04:29:30.939Z,101029.60
2023-02-11T04:31:33.859Z,101033.25
2023-02-11T04:33:39.427Z,101030.56
2023-02-11T04:35:45.247Z,101027.89
2023-02-11T04:37:50.229Z,101023.94
2023-02-11T04:39:52.846Z,101018.30
2023-02-11T04:41:55.742Z,101018.41
2023-02-11T04:43:58.447Z,101015.56
2023-02-11T04:46:01.187Z,101020.19
2023-02-11T04:48:05.558Z,101016.00
2023-02-11T04:50:11.355Z,101010.77
2023-02-11T04:52:13.949Z,101010.52
2023-02-11T04:54:17.275Z,101011.85
2023-02-11T04:56:25.677Z,101009.22
2023-02-11T04:58:29.444Z,101014.10
2023-02-11T05:00:32.111Z,101012.38
2023-02-11T05:02:38.158Z,101009.42
2023-02-11T05:04:40.861Z,101003.51
2023-02-11T05:06:43.831Z,101001.69
2023-02-11T05:08:49.837Z,101002.84
2023-02-11T05:10:52.555Z,101001.51
2023-02-11T05:12:56.467Z,101001.77
2023-02-11T05:14:59.127Z,101003.10
2023-02-11T05:17:01.926Z,101004.73
2023-02-11T05:19:05.243Z,101000.98
2023-02-11T05:21:10.037Z,101004.16
2023-02-11T05:23:12.859Z,101005.38
2023-02-11T05:25:21.751Z,101008.44
2023-02-11T05:27:24.877Z,101012.06
2023-02-11T05:29:28.082Z,101006.68
2023-02-11T05:31:30.799Z,101011.15
2023-02-11T05:33:33.744Z,101004.88
2023-02-11T05:35:36.839Z,101008.43
2023-02-11T05:37:39.982Z,101013.77
2023-02-11T05:39:43.209Z,101005.06
2023-02-11T05:41:48.972Z,101005.15
2023-02-11T05:43:54.232Z,101006.50
2023-02-11T05:46:00.164Z,101001.55
2023-02-11T05:48:04.195Z,101000.46
2023-02-11T05:50:10.702Z,101005.27
2023-02-11T05:52:13.487Z,100998.98
2023-02-11T05:54:18.948Z,100996.70
2023-02-11T05:56:24.810Z,101000.44
2023-02-11T05:58:31.732Z,100997.38
2023-02-11T06:00:35.129Z,100988.20
2023-02-11T06:02:45.185Z,100988.79
2023-02-11T06:04:54.072Z,100988.10
2023-02-11T06:06:56.834Z,100990.16
2023-02-11T06:09:01.258Z,100986.48
2023-02-11T06:11:04.629Z,100982.92
2023-02-11T06:13:07.514Z,100977.13
2023-02-11T06:15:12.131Z,100976.58
2023-02-11T06:17:18.117Z,100965.67
2023-02-11T06:19:20.904Z,100962.70
2023-02-11T06:21:26.481Z,100959.52
2023-02-11T06:23:34.700Z,100960.95
2023-02-11T06:25:37.910Z,100954.17
2023-02-11T06:27:40.831Z,100941.55
2023-02-11T06:29:45.230Z,100938.56
2023-02-11T06:31:48.054Z,100938.31
2023-02-11T06:33:50.852Z,100936.92
2023-02-11T06:35:53.548Z,100931.50
2023-02-11T06:37:59.222Z,100932.27
2023-02-11T06:40:02.456Z,100927.17
2023-02-11T06:42:08.015Z,100924.90
2023-02-11T06:44:13.355Z,100920.33
2023-02-11T06:46:20.572Z,100920.70
2023-02-11T06:48:23.602Z,100916.92
2023-02-11T06:50:26.473Z,100918.74
2023-02-11T06:52:32.219Z,100916.55
2023-02-11T06:54:36.698Z,100911.53
2023-02-11T06:56:43.934Z,100915.27
2023-02-11T06:58:53.798Z,100915.59
2023-02-11T07:00:56.772Z,100915.95
2023-02-11T07:02:59.652Z,100911.77
2023-02-11T07:05:05.306Z,100910.23
2023-02-11T07:07:09.215Z,100914.30
2023-02-11T07:09:15.881Z,100909.36
2023-02-11T07:11:23.016Z,100903.79
2023-02-11T07:13:27.168Z,100905.25
2023-02-11T07:15:32.596Z,100897.23
2023-02-11T07:17:36.137Z,100895.45
2023-02-11T07:19:38.927Z,100893.20
2023-02-11T07:21:47.426Z,100893.94
2023-02-11T07:23:50.467Z,100893.25
2023-02-11T07:25:53.082Z,100893.57
2023-02-11T07:27:56.409Z,100893.61
2023-02-11T07:29:59.243Z,100892.12
2023-02-11T07:32:03.215Z,100891.15
2023-02-11T07:34:05.992Z,100891.14
2023-02-11T07:36:11.942Z,100889.58
2023-02-11T07:38:14.708Z,100892.00
2023-02-11T07:40:17.884Z,100883.13
2023-02-11T07:42:20.619Z,100886.48
2023-02-11T07:44:26.360Z,100883.93
2023-02-11T07:46:29.226Z,100880.66
2023-02-11T07:48:32.288Z,100880.35
2023-02-11T07:50:34.957Z,100883.70
2023-02-11T07:52:37.956Z,100883.35
2023-02-11T07:54:41.160Z,100888.39
2023-02-11T07:56:43.926Z,100895.98
2023-02-11T07:58:46.998Z,100901.14
2023-02-11T08:00:49.783Z,100903.20
2023-02-11T08:02:53.792Z,100905.63
2023-02-11T08:04:56.462Z,100916.20
2023-02-11T08:06:59.392Z,100921.61
2023-02-11T08:09:07.361Z,100923.63
2023-02-11T08:11:12.774Z,100920.68
2023-02-11T08:13:18.508Z,100923.76
2023-02-11T08:15:21.241Z,100919.86
2023-02-11T08:17:26.866Z,100916.98
2023-02-11T08:19:29.637Z,100915.44
2023-02-11T08:21:33.544Z,100914.02
2023-02-11T08:23:40.514Z,100908.08
2023-02-11T08:25:44.724Z,100899.02
2023-02-11T08:27:47.989Z,100899.52
2023-02-11T08:29:51.087Z,100896.92
2023-02-11T08:31:54.008Z,100901.66
2023-02-11T08:33:56.696Z,100903.30
2023-02-11T08:35:59.892Z,100899.54
2023-02-11T08:38:03.895Z,100898.20
2023-02-11T08:40:11.457Z,100891.05
2023-02-11T08:42:14.430Z,100884.65
2023-02-11T08:44:17.302Z,100888.91
2023-02-11T08:46:20.919Z,100892.10
2023-02-11T08:48:23.806Z,100895.13
2023-02-11T08:50:28.831Z,100898.86
2023-02-11T08:52:31.936Z,100899.02
2023-02-11T08:54:34.671Z,100899.16
2023-02-11T08:56:38.150Z,100897.89
2023-02-11T08:58:41.294Z,100890.73
2023-02-11T09:00:44.121Z,100889.29
2023-02-11T09:02:49.875Z,100892.54
2023-02-11T09:04:52.564Z,100896.27
2023-02-11T09:06:58.058Z,100898.02
2023-02-11T09:09:01.216Z,100899.97
2023-02-11T09:11:07.553Z,100901.81
2023-02-11T09:13:10.722Z,100903.02
2023-02-11T09:15:16.736Z,100896.68
2023-02-11T09:17:22.617Z,100892.59
2023-02-11T09:19:25.314Z,100884.52
2023-02-11T09:21:28.789Z,100885.14
2023-02-11T09:23:31.587Z,100886.79
2023-02-11T09:25:34.284Z,100880.98
2023-02-11T09:27:37.082Z,100884.27
2023-02-11T09:29:39.781Z,100880.55
2023-02-11T09:31:42.582Z,100881.23
2023-02-11T09:33:48.450Z,100873.34
2023-02-11T09:35:54.528Z,100876.47
2023-02-11T09:38:01.328Z,100873.31
2023-02-11T09:40:05.220Z,100862.77
2023-02-11T09:42:44.984Z,100866.63
2023-02-11T09:44:50.803Z,100860.84
2023-02-11T09:46:57.961Z,100855.73
2023-02-11T09:49:01.511Z,100858.58
2023-02-11T09:51:05.600Z,100853.00
2023-02-11T09:53:17.166Z,100850.44
2023-02-11T09:55:24.540Z,100846.68
2023-02-11T09:57:31.739Z,100851.86
2023-02-11T09:59:39.257Z,100846.06
2023-02-11T10:01:50.410Z,100839.64
2023-02-11T10:04:01.105Z,100841.38
2023-02-11T10:06:15.260Z,100839.73
2023-02-11T10:08:26.281Z,100839.73
2023-02-11T10:10:47.876Z,100847.45
2023-02-11T10:13:11.473Z,100835.60
2023-02-11T10:15:21.545Z,100836.77
2023-02-11T10:17:36.036Z,100833.72
2023-02-11T10:19:52.738Z,100832.22
2023-02-11T10:22:06.231Z,100815.68
2023-02-11T10:24:13.509Z,100816.67
2023-02-11T10:26:18.092Z,100810.01
2023-02-11T10:28:23.035Z,100800.63
2023-02-11T10:30:31.556Z,100796.74
2023-02-11T10:32:42.852Z,100787.88
2023-02-11T10:34:45.990Z,100779.66
2023-02-11T10:36:54.909Z,100775.75
2023-02-11T10:38:59.377Z,100781.86
2023-02-11T10:41:02.147Z,100781.04
2023-02-11T10:43:11.022Z,100785.08
2023-02-11T10:45:31.689Z,100779.03
2023-02-11T10:47:37.725Z,100780.77
2023-02-11T10:49:47.155Z,100781.55
2023-02-11T10:51:51.090Z,100783.60
2023-02-11T10:54:16.998Z,100778.61
2023-02-11T10:56:26.808Z,100779.42
2023-02-11T10:58:39.756Z,100774.16
2023-02-11T11:00:50.479Z,100767.25
2023-02-11T11:03:00.483Z,100768.72
2023-02-11T11:05:07.080Z,100764.02
2023-02-11T11:07:20.950Z,100761.71
2023-02-11T11:09:29.069Z,100762.27
2023-02-11T11:11:52.347Z,100759.16
2023-02-11T11:13:57.108Z,100754.08
2023-02-11T11:16:19.761Z,100748.73
2023-02-11T11:18:25.298Z,100742.90
2023-02-11T11:20:29.841Z,100734.19
2023-02-11T11:22:32.862Z,100731.80
2023-02-11T11:24:45.560Z,100735.71
2023-02-11T11:26:53.178Z,100726.34
2023-02-11T11:29:06.040Z,100719.14
2023-02-11T11:31:16.916Z,100716.70
2023-02-11T11:33:22.397Z,100710.79
2023-02-11T11:35:27.384Z,100709.20
2023-02-11T11:37:32.931Z,100699.56
2023-02-11T11:39:36.121Z,100698.41
2023-02-11T11:41:49.899Z,100694.50
2023-02-11T11:44:00.257Z,100686.37
2023-02-11T11:46:09.227Z,100684.41
2023-02-11T11:48:21.919Z,100679.61
2023-02-11T11:50:31.463Z,100682.84
2023-02-11T11:52:43.121Z,100666.49
2023-02-11T11:54:53.756Z,100671.97
2023-02-11T11:57:01.063Z,100666.18
2023-02-11T11:59:12.119Z,100663.09
2023-02-11T12:01:28.047Z,100663.49
2023-02-11T12:04:12.752Z,100660.48
2023-02-11T12:06:38.701Z,100648.13
2023-02-11T12:08:48.856Z,100641.06
2023-02-11T12:11:07.863Z,100638.63
2023-02-11T12:13:20.992Z,100629.63
2023-02-11T12:15:34.653Z,100635.20
2023-02-11T12:17:58.341Z,100619.35
2023-02-11T12:20:25.070Z,100616.48
2023-02-11T12:22:41.269Z,100619.71
2023-02-11T12:25:09.088Z,100606.42
2023-02-11T12:27:22.235Z,100602.61
2023-02-11T12:29:35.523Z,100609.15
2023-02-11T12:31:56.634Z,100609.09
2023-02-11T12:34:30.541Z,100605.26
2023-02-11T12:36:47.457Z,100618.54
2023-02-11T12:39:07.258Z,100603.89
2023-02-11T12:41:43.765Z,100610.06
2023-02-11T12:43:46.504Z,100606.02
2023-02-11T12:46:01.580Z,100607.59
2023-02-11T12:48:24.105Z,100617.73
2023-02-11T12:50:41.956Z,100616.70
2023-02-11T12:53:08.410Z,100611.98
2023-02-11T12:55:21.821Z,100602.02
2023-02-11T12:57:27.494Z,100614.36
2023-02-11T12:59:43.772Z,100623.25
2023-02-11T13:01:51.488Z,100611.69
2023-02-11T13:03:59.473Z,100619.55
2023-02-11T13:06:06.698Z,100621.88
2023-02-11T13:08:15.322Z,100619.81
2023-02-11T13:10:27.843Z,100617.81
2023-02-11T13:12:34.612Z,100620.61
2023-02-11T13:14:40.565Z,100635.91
2023-02-11T13:16:46.310Z,100646.25
2023-02-11T13:18:56.236Z,100648.54
2023-02-11T13:21:19.883Z,100637.61
2023-02-11T13:23:31.638Z,100648.25
2023-02-11T13:25:40.409Z,100648.95
2023-02-11T13:27:55.386Z,100643.44
2023-02-11T13:30:23.070Z,100644.94
2023-02-11T13:32:51.748Z,100640.06
2023-02-11T13:34:57.135Z,100650.63
2023-02-11T13:37:00.381Z,100652.98
2023-02-11T13:39:18.622Z,100643.52
2023-02-11T13:41:30.367Z,100653.14
2023-02-11T13:43:35.823Z,100668.70
2023-02-11T13:45:44.508Z,100657.59
2023-02-11T13:47:49.327Z,100655.08
2023-02-11T13:49:54.375Z,100660.05
2023-02-11T13:51:59.562Z,100648.28
2023-02-11T13:54:16.854Z,100651.58
2023-02-11T13:56:30.395Z,100644.83
2023-02-11T13:58:46.703Z,100636.07
2023-02-11T14:00:56.327Z,100633.67
2023-02-11T14:03:31.058Z,100642.73
2023-02-11T14:05:35.482Z,100642.33
2023-02-11T14:08:09.753Z,100639.63
2023-02-11T14:10:52.152Z,100645.73
2023-02-11T14:13:23.295Z,100652.87
2023-02-11T14:15:37.855Z,100655.32
2023-02-11T14:17:41.690Z,100657.23
2023-02-11T14:19:50.148Z,100656.34
2023-02-11T14:22:01.993Z,100653.37
2023-02-11T14:24:49.845Z,100649.89
2023-02-11T14:27:01.993Z,100649.88
2023-02-11T14:29:15.482Z,100639.61
2023-02-11T14:31:24.553Z,100638.48
2023-02-11T14:33:55.466Z,100636.70
2023-02-11T14:36:07.908Z,100638.18
2023-02-11T14:38:26.571Z,100633.09
2023-02-11T14:40:32.581Z,100633.63
2023-02-11T14:42:37.523Z,100631.32
2023-02-11T14:44:43.417Z,100636.05
2023-02-11T14:46:49.315Z,100634.55
2023-02-11T14:48:58.044Z,100633.42
2023-02-11T14:51:06.290Z,100636.63
2023-02-11T14:53:15.666Z,100631.73
2023-02-11T14:55:30.256Z,100630.82
2023-02-11T14:57:33.463Z,100628.52
2023-02-11T14:59:39.027Z,100624.03
2023-02-11T15:01:45.066Z,100624.02
2023-02-11T15:03:50.375Z,100622.39
2023-02-11T15:05:59.413Z,100613.73
2023-02-11T15:08:14.825Z,100624.72
2023-02-11T15:10:29.941Z,100623.23
2023-02-11T15:12:35.122Z,100622.80
2023-02-11T15:14:45.387Z,100620.02
2023-02-11T15:16:50.113Z,100622.58
2023-02-11T15:19:00.677Z,100625.75
2023-02-11T15:21:06.094Z,100621.35
2023-02-11T15:23:19.556Z,100624.70
2023-02-11T15:25:25.640Z,100632.70
2023-02-11T15:27:39.745Z,100633.93
2023-02-11T15:29:45.290Z,100639.27
2023-02-11T15:32:13.729Z,100640.98
2023-02-11T15:34:20.773Z,100632.26
2023-02-11T15:36:29.344Z,100635.16
2023-02-11T15:38:36.179Z,100629.05
2023-02-11T15:40:50.949Z,100634.59
2023-02-11T15:42:59.490Z,100638.51
2023-02-11T15:45:21.530Z,100636.04
2023-02-11T15:47:30.572Z,100628.56
2023-02-11T15:49:44.048Z,100635.41
2023-02-11T15:51:50.231Z,100618.52
2023-02-11T15:54:00.947Z,100617.34
2023-02-11T15:56:19.508Z,100615.51
2023-02-11T15:58:28.204Z,100603.27
2023-02-11T16:00:46.329Z,100599.99
2023-02-11T16:02:55.474Z,100602.79
2023-02-11T16:05:02.894Z,100608.17
2023-02-11T16:07:26.959Z,100604.54
2023-02-11T16:09:37.536Z,100598.48
2023-02-11T16:11:57.826Z,100593.48
2023-02-11T16:14:20.388Z,100611.33
2023-02-11T16:16:29.309Z,100618.79
2023-02-11T16:18:39.234Z,100618.32
2023-02-11T16:20:49.305Z,100633.07
2023-02-11T16:22:57.470Z,100629.25
2023-02-11T16:25:04.838Z,100635.75
2023-02-11T16:27:22.593Z,100646.42
2023-02-11T16:29:30.628Z,100652.94
2023-02-11T16:31:36.883Z,100653.55
2023-02-11T16:33:45.652Z,100651.00
2023-02-11T16:35:54.456Z,100651.10
2023-02-11T16:38:05.715Z,100654.44
2023-02-11T16:40:12.543Z,100657.19
2023-02-11T16:42:25.125Z,100659.40
2023-02-11T16:44:32.620Z,100657.44
2023-02-11T16:46:38.805Z,100657.98
2023-02-11T16:48:43.068Z,100661.20
2023-02-11T16:50:51.522Z,100652.89
2023-02-11T16:52:59.238Z,100646.02
2023-02-11T16:55:06.208Z,100650.21
2023-02-11T16:57:13.251Z,100651.57
2023-02-11T16:59:23.453Z,100648.86
2023-02-11T17:01:28.228Z,100642.03
2023-02-11T17:03:34.039Z,100641.95
2023-02-11T17:05:55.028Z,100644.80
2023-02-11T17:08:02.254Z,100659.29
2023-02-11T17:10:18.185Z,100658.25
2023-02-11T17:12:22.595Z,100670.73
2023-02-11T17:14:30.141Z,100677.05
2023-02-11T17:16:35.328Z,100676.41
2023-02-11T17:18:46.006Z,100678.05
2023-02-11T17:20:54.666Z,100677.27
2023-02-11T17:23:01.375Z,100685.09
2023-02-11T17:25:13.504Z,100679.99
2023-02-11T17:27:23.265Z,100688.09
2023-02-11T17:29:28.593Z,100685.95
2023-02-11T17:31:35.825Z,100686.70
2023-02-11T17:33:39.793Z,100688.13
2023-02-11T17:35:47.527Z,100681.52
2023-02-11T17:37:53.471Z,100680.24
2023-02-11T17:39:59.759Z,100686.38
2023-02-11T17:42:07.698Z,100696.95
2023-02-11T17:44:12.618Z,100690.51
2023-02-11T17:46:16.787Z,100690.64
2023-02-11T17:48:23.569Z,100684.98
2023-02-11T17:50:29.245Z,100685.89
2023-02-11T17:52:34.392Z,100690.73
2023-02-11T17:54:39.342Z,100684.52
2023-02-11T17:56:45.822Z,100687.34
2023-02-11T17:58:52.618Z,100685.25
2023-02-11T18:01:03.387Z,100692.44
2023-02-11T18:03:11.245Z,100698.70
2023-02-11T18:05:16.242Z,100681.60
2023-02-11T18:07:21.253Z,100680.50
2023-02-11T18:09:28.810Z,100684.27
2023-02-11T18:11:34.736Z,100682.24
2023-02-11T18:13:43.324Z,100673.30
2023-02-11T18:15:52.617Z,100668.44
2023-02-11T18:17:59.586Z,100664.00
2023-02-11T18:20:07.616Z,100672.64
2023-02-11T18:22:18.063Z,100677.73
2023-02-11T18:24:27.429Z,100683.77
2023-02-11T18:26:36.670Z,100676.93
2023-02-11T18:28:45.314Z,100680.33
2023-02-11T18:30:57.857Z,100687.55
2023-02-11T18:33:02.769Z,100681.61
2023-02-11T18:35:22.901Z,100704.40
2023-02-11T18:37:27.291Z,100702.30
2023-02-11T18:39:32.178Z,100710.02
2023-02-11T18:41:37.868Z,100707.10
2023-02-11T18:43:50.164Z,100708.16
2023-02-11T18:45:58.265Z,100704.50
2023-02-11T18:48:08.694Z,100720.00
2023-02-11T18:50:20.599Z,100711.10
2023-02-11T18:52:26.347Z,100709.52
2023-02-11T18:54:31.856Z,100709.98
2023-02-11T18:56:40.474Z,100713.52
2023-02-11T18:58:47.203Z,100712.16
2023-02-11T19:00:51.611Z,100713.75
2023-02-11T19:02:58.087Z,100713.42
2023-02-11T19:05:10.378Z,100709.98
2023-02-11T19:07:14.908Z,100717.55
2023-02-11T19:09:23.541Z,100719.89
2023-02-11T19:11:31.315Z,100720.75
2023-02-11T19:13:37.630Z,100722.19
2023-02-11T19:16:04.548Z,100723.97
2023-02-11T19:18:11.567Z,100732.55
2023-02-11T19:20:18.211Z,100735.77
2023-02-11T19:22:26.159Z,100735.73
2023-02-11T19:24:32.909Z,100738.64
2023-02-11T19:26:39.651Z,100740.87
2023-02-11T19:28:49.704Z,100734.01
2023-02-11T19:30:54.723Z,100740.98
2023-02-11T19:33:01.414Z,100735.05
2023-02-11T19:35:05.653Z,100731.65
2023-02-11T19:37:17.676Z,100732.77
2023-02-11T19:39:24.009Z,100735.48
2023-02-11T19:41:28.472Z,100734.35
2023-02-11T19:43:33.651Z,100735.40
2023-02-11T19:45:39.938Z,100727.79
2023-02-11T19:47:45.698Z,100724.98
2023-02-11T19:49:49.714Z,100730.02
2023-02-11T19:51:56.143Z,100733.82
2023-02-11T19:54:00.818Z,100727.86
2023-02-11T19:56:10.215Z,100730.10
2023-02-11T19:58:16.780Z,100720.56
2023-02-11T20:00:28.754Z,100722.42
2023-02-11T20:02:33.710Z,100720.48
2023-02-11T20:04:40.242Z,100721.80
2023-02-11T20:06:47.606Z,100722.14
2023-02-11T20:08:58.179Z,100730.00
2023-02-11T20:11:08.721Z,100746.10
2023-02-11T20:13:15.038Z,100742.39
2023-02-11T20:15:22.983Z,100742.00
2023-02-11T20:17:29.012Z,100748.53
2023-02-11T20:19:33.924Z,100739.30
2023-02-11T20:21:40.465Z,100741.70
2023-02-11T20:23:45.906Z,100732.55
2023-02-11T20:25:50.397Z,100741.52
2023-02-11T20:27:58.635Z,100741.05
2023-02-11T20:30:04.281Z,100738.90
2023-02-11T20:32:09.780Z,100745.79
2023-02-11T20:34:14.488Z,100756.03
2023-02-11T20:36:23.482Z,100753.96
2023-02-11T20:38:29.388Z,100747.95
2023-02-11T20:40:39.527Z,100747.02
2023-02-11T20:42:44.957Z,100746.38
2023-02-11T20:44:50.093Z,100747.13
2023-02-11T20:46:54.989Z,100749.13
2023-02-11T20:48:59.228Z,100738.68
2023-02-11T20:51:11.746Z,100738.16
2023-02-11T20:53:16.754Z,100741.36
2023-02-11T20:55:20.877Z,100741.83
2023-02-11T20:57:30.050Z,100737.30
2023-02-11T20:59:33.499Z,100737.73
2023-02-11T21:01:49.220Z,100742.44
2023-02-11T21:03:55.250Z,100728.54
2023-02-11T21:06:04.978Z,100724.41
2023-02-11T21:08:13.731Z,100722.84
2023-02-11T21:10:18.646Z,100721.84
2023-02-11T21:12:24.834Z,100712.08
2023-02-11T21:14:30.553Z,100714.98
2023-02-11T21:16:37.593Z,100708.38
2023-02-11T21:18:42.142Z,100709.59
2023-02-11T21:20:45.448Z,100712.08
2023-02-11T21:22:53.391Z,100703.91
2023-02-11T21:25:01.183Z,100710.98
2023-02-11T21:27:09.400Z,100709.27
2023-02-11T21:29:14.788Z,100717.54
2023-02-11T21:31:22.392Z,100711.88
2023-02-11T21:33:31.092Z,100707.25
2023-02-11T21:35:39.388Z,100712.45
2023-02-11T21:37:42.823Z,100703.84
2023-02-11T21:39:47.617Z,100711.39
2023-02-11T21:41:51.745Z,100708.03
2023-02-11T21:43:58.549Z,100715.33
2023-02-11T21:46:08.980Z,100711.29
2023-02-11T21:48:16.661Z,100713.74
2023-02-11T21:50:23.992Z,100711.67
2023-02-11T21:52:27.507Z,100713.52
2023-02-11T21:54:32.108Z,100724.95
2023-02-11T21:56:39.924Z,100726.29
2023-02-11T21:58:43.852Z,100723.23
2023-02-11T22:00:47.072Z,100728.08
2023-02-11T22:02:51.652Z,100734.34
2023-02-11T22:04:56.664Z,100727.52
2023-02-11T22:06:59.703Z,100743.05
2023-02-11T22:09:05.325Z,100739.39
2023-02-11T22:11:11.541Z,100742.06
2023-02-11T22:13:15.249Z,100735.13
2023-02-11T22:15:18.264Z,100740.25
2023-02-11T22:17:21.229Z,100739.80
2023-02-11T22:19:23.965Z,100743.67
2023-02-11T22:21:27.580Z,100742.84
2023-02-11T22:23:34.047Z,100748.23
2023-02-11T22:25:37.704Z,100757.09
2023-02-11T22:27:40.428Z,100768.33
2023-02-11T22:29:43.592Z,100766.73
2023-02-11T22:31:46.359Z,100761.24
2023-02-11T22:33:49.840Z,100759.68
2023-02-11T22:36:01.921Z,100765.23
2023-02-11T22:38:04.713Z,100765.42
2023-02-11T22:40:11.499Z,100771.77
2023-02-11T22:42:17.166Z,100765.60
2023-02-11T22:44:19.923Z,100771.98
2023-02-11T22:46:22.720Z,100769.95
2023-02-11T22:48:26.071Z,100782.21
2023-02-11T22:50:29.037Z,100778.90
2023-02-11T22:52:33.782Z,100774.60
2023-02-11T22:54:39.511Z,100767.73
2023-02-11T22:56:42.477Z,100779.53
2023-02-11T22:58:45.165Z,100770.95
2023-02-11T23:00:50.656Z,100772.34
2023-02-11T23:02:53.447Z,100777.88
2023-02-11T23:04:56.191Z,100778.11
2023-02-11T23:06:58.967Z,100784.48
2023-02-11T23:09:04.818Z,100784.15
2023-02-11T23:11:09.767Z,100791.23
2023-02-11T23:13:12.717Z,100800.63
2023-02-11T23:15:15.668Z,100797.69
2023-02-11T23:17:18.490Z,100801.48
2023-02-11T23:19:21.123Z,100798.73
2023-02-11T23:21:26.810Z,100813.91
2023-02-11T23:23:29.494Z,100797.31
2023-02-11T23:25:33.230Z,100789.14
2023-02-11T23:27:35.972Z,100785.78
2023-02-11T23:29:38.653Z,100785.77
2023-02-11T23:31:42.998Z,100789.08
2023-02-11T23:33:46.054Z,100789.89
2023-02-11T23:35:51.728Z,100797.34
2023-02-11T23:37:54.389Z,100781.65
2023-02-11T23:39:57.178Z,100780.24
2023-02-11T23:41:59.912Z,100782.92
2023-02-11T23:44:02.571Z,100785.09
2023-02-11T23:46:05.840Z,100780.96
2023-02-11T23:48:08.681Z,100784.30
2023-02-11T23:50:12.331Z,100788.23
2023-02-11T23:52:15.409Z,100799.45
2023-02-11T23:54:19.640Z,100797.89
2023-02-11T23:56:24.399Z,100791.16
2023-02-11T23:58:27.126Z,100792.03
